Portada
METAR-TAF:

METAR-TAF

Aeroports :

Taraz, Kazakhstan

latitud: 42-51-13N, longitud: 071-18-13E, altitud: 666 m

Observació

L'informe es va fer fa 35 minuts, a les 17:00 UTC
Vent 4 kt del Nord
Temperatura -6°C
Humitat 93%
Pressió 1029 hPa
Visibilitat: 1200 m
Cel cobert a una alçada de 100 ft
boirina

METAR: UADD 251700Z 36002MPS 1200 R13/P2000 BR OVC001 M06/M07 Q1029 R13/890150 NOSIG RMK QBB050 MT OBSC QFE714/0952

Hora: 23:35 (17:35 UTC)

Pronòstic

L'informe es va fer fa 3 hores i 35 minuts, a les 14:00 UTC
Pronòstic vàlid del 25 a les 15 UTC al 25 a les 24 UTC
Vent 6 kt del Nord-Oest amb ràfegues de 16 kt
Visibilitat: 1500 m
Cel ennuvolat a una alçada de 500 ft
Cel cobert a una alçada de 10000 ft
boirina
Temporalment
l' 25 a les 15 UTC al 25 a les 21 UTC
Visibilitat: 0500 m
a una alçada de 200 ft
boira gebradora

TAF: UADD 251400Z 2515/2524 32003G08MPS 1500 BR BKN005 OVC100 TEMPO 2515/2521 0500 FZFG VV002

Observacions i pronòstics meteorològics de més de 4000 aeroports (METAR i TAF).

Les estacions disponibles són els punts grocs i vermells al mapa.

Posi el ratolí al punt desitjat per veure el nom de l'estació.

Feu clic per veure les observacions i els pronòstics meteorològics.

Per canviar el mapa: feu clic els botons verds amb una creu de color negre per apropar; al botó verd amb un guió per allunyar la imatge; o en les fletxes verdes per a mapes adjacents.


METAR-TAF: